الصفحة الرئيسية
METAR-TAF:

METAR-TAF

مطار :

Kununurra, أستراليا

دائرة عرض: 15-46S, خط طول: 128-42E, ارتفاع: 44 متر

مراقبة الطقس الحالي

تاريخ ووقت الإصدار 27 دقيقة قبل الساعة 19:30UTC
ريح 2 عقدة من الجنوب
درجة الحرارة 18°درجة مئوية
ضغط 1014 hPa
الرؤية: 2600 متر

METAR: YPKU 021930Z AUTO 17002KT 2600 // NCD 18/// Q1014 RF00.0/000.0

زمن: 03:57 (19:57 UTC)

توقعات

تاريخ ووقت الإصدار 1ساعة و 34 دقيقة قبل الساعة 18:23UTC
التوقعات صالحة من02 الساعة 20 UTC إلى 03 الساعة 08 UTC
ريح 5 عقدة من الجنوب/الجنوب الشرقي
الرؤية 10 كم أو أكثر
الغيوم لا تقل 1500 م ولا وجود لمزنة ركامية السحاب الأسود
من 03 الساعة 0000 UTC
ريح 12 عقدة من الشرق
الرؤية 10 كم أو أكثر
الغيوم لا تقل 1500 م ولا وجود لمزنة ركامية السحاب الأسود

TAF: YPKU 021823Z 0220/0308 16005KT CAVOK FM030000 10012KT CAVOK

أرصاد الطقس والتوقعات من أكثر من 4000 مطار (تقارير الطقس للمطار METAR والتنبؤ بالطقس بالمطارTAF).

المحطات المتاحة هي النقط الصفراء والحمراء على الخريطة.

حرك المؤشر فوق النقطة لمعرفة اسم المحطة.

ثم انقر لمعرفة أرصاد وتوقعات الطقس.

لتغيير الخارطة: اضغط على الأزرار الخضراء مع رمز الصليب الأسود للتكبير. على الزر الأخضر مع شرطة للتصغير، أو على الأسهم الخضراء للخرائط المجاورة.


METAR-TAF: